Time;durP1;ratioP1;P1;durP2;ratioP2;P2;SDS_P1;SDS_P2;PMS_P1;PMS_P2;Temp;Humidity;BMP_temperature;BMP_pressure;BME280_temperature;BME280_humidity;BME280_pressure;Samples;Min_cycle;Max_cycle;Signal;HPM_P1;HPM_P2
2021/11/06 00:01:19;;;;;;;;;;;7.90;99.90;;;;;;5046940;28;20011;-76
2021/11/06 00:03:44;;;;;;;;;;;7.90;99.90;;;;;;5033949;28;19913;-76
2021/11/06 00:06:10;;;;;;;;;;;7.90;99.90;;;;;;5035340;28;19986;-76
2021/11/06 00:08:35;;;;;;;;;;;7.90;99.90;;;;;;5033278;28;19924;-77
2021/11/06 00:11:01;;;;;;;;;;;7.90;99.90;;;;;;5035964;28;20487;-76
2021/11/06 00:13:27;;;;;;;;;;;7.90;99.90;;;;;;5040247;28;19917;-77
2021/11/06 00:15:52;;;;;;;;;;;7.90;99.90;;;;;;5032708;28;20411;-76
2021/11/06 00:18:18;;;;;;;;;;;7.90;99.90;;;;;;5030400;28;19917;-75
2021/11/06 00:20:44;;;;;;;;;;;7.90;99.90;;;;;;5029145;28;19920;-77
2021/11/06 00:23:10;;;;;;;;;;;7.90;99.90;;;;;;5042261;28;20270;-76
2021/11/06 00:25:35;;;;;;;;;;;7.90;99.90;;;;;;5035519;28;20351;-76
2021/11/06 00:28:01;;;;;;;;;;;7.90;99.90;;;;;;5040539;28;19921;-78
2021/11/06 00:30:26;;;;;;;;;;;7.90;99.90;;;;;;5035444;28;20003;-76
2021/11/06 00:32:52;;;;;;;;;;;8.00;99.90;;;;;;5035191;28;19936;-76
2021/11/06 00:35:18;;;;;;;;;;;8.00;99.90;;;;;;5033622;28;19924;-77
2021/11/06 00:37:44;;;;;;;;;;;8.00;99.90;;;;;;5048565;28;19917;-76
2021/11/06 00:40:10;;;;;;;;;;;7.90;99.90;;;;;;5034616;28;19919;-76
2021/11/06 00:42:36;;;;;;;;;;;8.00;99.90;;;;;;5034842;28;19925;-77
2021/11/06 00:45:03;;;;;;;;;;;8.00;99.90;;;;;;5035521;28;19967;-77
2021/11/06 00:47:28;;;;;;;;;;;7.90;99.90;;;;;;5030765;28;20551;-76
2021/11/06 00:49:54;;;;;;;;;;;8.00;99.90;;;;;;5032738;28;20007;-76
2021/11/06 00:52:19;;;;;;;;;;;8.00;99.90;;;;;;5032847;28;19917;-76
2021/11/06 00:54:45;;;;;;;;;;;8.00;99.90;;;;;;5033231;28;19920;-76
2021/11/06 00:57:11;;;;;;;;;;;8.00;99.90;;;;;;5032373;28;19917;-77
2021/11/06 00:59:36;;;;;;;;;;;8.00;99.90;;;;;;5028431;28;20281;-75
2021/11/06 01:02:02;;;;;;;;;;;8.00;99.90;;;;;;5031137;28;19929;-77
2021/11/06 01:04:28;;;;;;;;;;;8.00;99.90;;;;;;5028586;28;20233;-77
2021/11/06 01:06:54;;;;;;;;;;;8.00;99.90;;;;;;5033395;28;20244;-77
2021/11/06 01:09:19;;;;;;;;;;;8.00;99.90;;;;;;5031111;28;19913;-76
2021/11/06 01:11:45;;;;;;;;;;;7.90;99.90;;;;;;5061164;28;19920;-76
2021/11/06 01:14:10;;;;;;;;;;;7.90;99.90;;;;;;5041331;28;19916;-76
2021/11/06 01:16:36;;;;;;;;;;;7.90;99.90;;;;;;5049910;28;19966;-76
2021/11/06 01:19:02;;;;;;;;;;;7.90;99.90;;;;;;5032734;28;19959;-77
2021/11/06 01:21:28;;;;;;;;;;;7.90;99.90;;;;;;5048263;28;19917;-76
2021/11/06 01:23:54;;;;;;;;;;;7.90;99.90;;;;;;5034268;28;20331;-77
2021/11/06 01:26:21;;;;;;;;;;;7.90;99.90;;;;;;5032838;28;19999;-77
2021/11/06 01:28:47;;;;;;;;;;;7.90;99.90;;;;;;5033342;28;20003;-76
2021/11/06 01:31:12;;;;;;;;;;;7.90;99.90;;;;;;5029297;28;20007;-77
2021/11/06 01:33:38;;;;;;;;;;;7.90;99.90;;;;;;5047399;28;19921;-78
2021/11/06 01:36:04;;;;;;;;;;;7.90;99.90;;;;;;5030370;28;19917;-78
2021/11/06 01:38:29;;;;;;;;;;;7.90;99.90;;;;;;5033594;28;19913;-76
2021/11/06 01:40:55;;;;;;;;;;;7.90;99.90;;;;;;5038350;22;19925;-77
2021/11/06 01:43:21;;;;;;;;;;;7.90;99.90;;;;;;5049272;28;19917;-77
2021/11/06 01:45:59;;;;;;;;;;;8.00;99.90;;;;;;5033525;28;20439;-76
2021/11/06 01:48:25;;;;;;;;;;;7.90;99.90;;;;;;5031826;28;19926;-77
2021/11/06 01:50:52;;;;;;;;;;;7.90;99.90;;;;;;5033518;28;19917;-76
2021/11/06 01:53:17;;;;;;;;;;;7.90;99.90;;;;;;5032309;28;20309;-76
2021/11/06 01:55:43;;;;;;;;;;;8.00;99.90;;;;;;5033715;28;19921;-77
2021/11/06 01:58:09;;;;;;;;;;;8.00;99.90;;;;;;5033563;28;19967;-78
2021/11/06 02:00:35;;;;;;;;;;;8.00;99.90;;;;;;5033907;28;19917;-78
2021/11/06 02:03:01;;;;;;;;;;;8.00;99.90;;;;;;5032847;28;20231;-77
2021/11/06 02:05:26;;;;;;;;;;;8.10;99.90;;;;;;5049679;28;20255;-76
2021/11/06 02:07:52;;;;;;;;;;;8.10;99.90;;;;;;5032582;28;20036;-77
2021/11/06 02:10:18;;;;;;;;;;;8.10;99.90;;;;;;5029062;28;19975;-78
2021/11/06 02:12:44;;;;;;;;;;;8.10;99.90;;;;;;5031331;28;20379;-77
2021/11/06 02:15:10;;;;;;;;;;;8.10;99.90;;;;;;5031739;28;20227;-78
2021/11/06 02:17:36;;;;;;;;;;;8.10;99.90;;;;;;5029917;28;20362;-77
2021/11/06 02:20:02;;;;;;;;;;;8.10;99.90;;;;;;5032158;28;19913;-75
2021/11/06 02:22:31;;;;;;;;;;;8.10;99.90;;;;;;5032303;28;20302;-76
2021/11/06 02:24:57;;;;;;;;;;;8.10;99.90;;;;;;5031627;28;19920;-76
2021/11/06 02:27:23;;;;;;;;;;;8.00;99.90;;;;;;5057974;28;19913;-78
2021/11/06 02:29:49;;;;;;;;;;;8.10;99.90;;;;;;5059970;28;19920;-76
2021/11/06 02:32:15;;;;;;;;;;;8.00;99.90;;;;;;5031737;28;19925;-76
2021/11/06 02:34:40;;;;;;;;;;;8.10;99.90;;;;;;5025667;28;20531;-77
2021/11/06 02:37:06;;;;;;;;;;;8.00;99.90;;;;;;5031740;28;19917;-76
2021/11/06 02:39:32;;;;;;;;;;;8.00;99.90;;;;;;5030257;28;19913;-76
2021/11/06 02:41:59;;;;;;;;;;;8.10;99.90;;;;;;5032428;28;20234;-76
2021/11/06 02:44:24;;;;;;;;;;;8.10;99.90;;;;;;5029353;28;19939;-75
2021/11/06 02:46:50;;;;;;;;;;;8.00;99.90;;;;;;5029516;28;20543;-76
2021/11/06 02:49:15;;;;;;;;;;;8.10;99.90;;;;;;5031370;28;20017;-76
2021/11/06 02:51:41;;;;;;;;;;;8.10;99.90;;;;;;5032465;28;20017;-76
2021/11/06 02:54:06;;;;;;;;;;;8.10;99.90;;;;;;5031226;28;19913;-76
2021/11/06 02:56:32;;;;;;;;;;;8.10;99.90;;;;;;5032112;28;20440;-76
2021/11/06 02:58:58;;;;;;;;;;;8.10;99.90;;;;;;5028135;28;19913;-76
2021/11/06 03:01:24;;;;;;;;;;;8.10;99.90;;;;;;5031166;28;19929;-77
2021/11/06 03:03:50;;;;;;;;;;;8.10;99.90;;;;;;5033264;28;19919;-77
2021/11/06 03:06:15;;;;;;;;;;;8.10;99.90;;;;;;5060014;28;19917;-77
2021/11/06 03:08:41;;;;;;;;;;;8.10;99.90;;;;;;5030832;28;19917;-76
2021/11/06 03:11:07;;;;;;;;;;;8.10;99.90;;;;;;5032140;28;20282;-77
2021/11/06 03:13:33;;;;;;;;;;;8.10;99.90;;;;;;5031832;28;19913;-77
2021/11/06 03:15:59;;;;;;;;;;;8.10;99.90;;;;;;5056270;28;19964;-78
2021/11/06 03:18:24;;;;;;;;;;;8.10;99.90;;;;;;5039373;28;20023;-77
2021/11/06 03:20:51;;;;;;;;;;;8.10;99.90;;;;;;5032874;28;19920;-77
2021/11/06 03:23:17;;;;;;;;;;;8.20;99.90;;;;;;5031357;28;20020;-77
2021/11/06 03:25:42;;;;;;;;;;;8.20;99.90;;;;;;5030956;28;20008;-77
2021/11/06 03:28:08;;;;;;;;;;;8.20;99.90;;;;;;5032404;28;19920;-76
2021/11/06 03:30:33;;;;;;;;;;;8.20;99.90;;;;;;5048929;28;20350;-77
2021/11/06 03:32:59;;;;;;;;;;;8.20;99.90;;;;;;5034025;28;19921;-77
2021/11/06 03:35:25;;;;;;;;;;;8.20;99.90;;;;;;5033067;28;19921;-77
2021/11/06 03:37:50;;;;;;;;;;;8.20;99.90;;;;;;5035707;28;19917;-77
2021/11/06 03:40:16;;;;;;;;;;;8.20;99.90;;;;;;5033580;28;19928;-77
2021/11/06 03:42:42;;;;;;;;;;;8.20;99.90;;;;;;5030814;28;19917;-76
2021/11/06 03:45:09;;;;;;;;;;;8.10;99.90;;;;;;5034952;28;19939;-78
2021/11/06 03:47:34;;;;;;;;;;;8.20;99.90;;;;;;5034178;28;19917;-76
2021/11/06 03:50:00;;;;;;;;;;;8.10;99.90;;;;;;5035199;28;20431;-75
2021/11/06 03:52:26;;;;;;;;;;;8.10;99.90;;;;;;5031435;28;20020;-75
2021/11/06 03:54:51;;;;;;;;;;;8.00;99.90;;;;;;5034027;28;19913;-76
2021/11/06 03:57:17;;;;;;;;;;;8.10;99.90;;;;;;5034700;28;20304;-76
2021/11/06 03:59:43;;;;;;;;;;;8.00;99.90;;;;;;5041557;28;19924;-77
2021/11/06 04:02:08;;;;;;;;;;;8.10;99.90;;;;;;5062466;28;19924;-77
2021/11/06 04:04:34;;;;;;;;;;;8.10;99.90;;;;;;5034335;28;19917;-75
2021/11/06 04:06:59;;;;;;;;;;;8.10;99.90;;;;;;5063710;28;20020;-75
2021/11/06 04:09:25;;;;;;;;;;;8.10;99.90;;;;;;5032803;28;19913;-77
2021/11/06 04:11:51;;;;;;;;;;;8.10;99.90;;;;;;5034662;28;19917;-76
2021/11/06 04:14:16;;;;;;;;;;;8.10;99.90;;;;;;5039980;28;19925;-77
2021/11/06 04:16:42;;;;;;;;;;;8.00;99.90;;;;;;5040586;28;19920;-75
2021/11/06 04:19:08;;;;;;;;;;;8.10;99.90;;;;;;5032920;28;19921;-77
2021/11/06 04:21:34;;;;;;;;;;;8.10;99.90;;;;;;5033922;28;20223;-76
2021/11/06 04:24:00;;;;;;;;;;;8.10;99.90;;;;;;5035285;28;19919;-76
2021/11/06 04:26:25;;;;;;;;;;;8.10;99.90;;;;;;5031559;28;19917;-76
2021/11/06 04:28:51;;;;;;;;;;;8.10;99.90;;;;;;5042791;28;19921;-76
2021/11/06 04:31:18;;;;;;;;;;;8.10;99.90;;;;;;5061378;28;20004;-76
2021/11/06 04:33:44;;;;;;;;;;;8.10;99.90;;;;;;5035875;28;20066;-76
2021/11/06 04:36:09;;;;;;;;;;;8.10;99.90;;;;;;5051352;28;20290;-77
2021/11/06 04:38:35;;;;;;;;;;;8.10;99.90;;;;;;5033339;28;19920;-76
2021/11/06 04:41:01;;;;;;;;;;;8.20;99.90;;;;;;5034730;28;19929;-76
2021/11/06 04:43:27;;;;;;;;;;;8.20;99.90;;;;;;5035104;28;20213;-76
2021/11/06 04:45:53;;;;;;;;;;;8.20;99.90;;;;;;5034996;28;19913;-77
2021/11/06 04:48:18;;;;;;;;;;;8.20;99.90;;;;;;5049450;28;19913;-77
2021/11/06 04:50:44;;;;;;;;;;;8.20;99.90;;;;;;5032778;28;19921;-77
2021/11/06 04:53:09;;;;;;;;;;;8.20;99.90;;;;;;5034091;28;20304;-76
2021/11/06 04:55:35;;;;;;;;;;;8.20;99.90;;;;;;5029269;28;20008;-77
2021/11/06 04:58:00;;;;;;;;;;;8.30;99.90;;;;;;5034267;28;20390;-77
2021/11/06 05:00:26;;;;;;;;;;;8.30;99.90;;;;;;5032416;28;20004;-76
2021/11/06 05:02:52;;;;;;;;;;;8.30;99.90;;;;;;5034625;28;20011;-77
2021/11/06 05:05:18;;;;;;;;;;;8.30;99.90;;;;;;5035360;28;19913;-78
2021/11/06 05:07:43;;;;;;;;;;;8.30;99.90;;;;;;5033490;28;19913;-77
2021/11/06 05:10:09;;;;;;;;;;;8.20;99.90;;;;;;5049262;28;19960;-78
2021/11/06 05:12:35;;;;;;;;;;;8.20;99.90;;;;;;5032672;28;19921;-77
2021/11/06 05:15:01;;;;;;;;;;;8.20;99.90;;;;;;5029676;28;20368;-78
2021/11/06 05:17:26;;;;;;;;;;;8.30;99.90;;;;;;5034796;28;20008;-77
2021/11/06 05:19:52;;;;;;;;;;;8.20;99.90;;;;;;5061088;28;19913;-76
2021/11/06 05:22:18;;;;;;;;;;;8.20;99.90;;;;;;5032580;28;19917;-76
2021/11/06 05:24:43;;;;;;;;;;;8.20;99.90;;;;;;5032624;28;19964;-77
2021/11/06 05:27:09;;;;;;;;;;;8.30;99.90;;;;;;5034095;28;20004;-77
2021/11/06 05:29:34;;;;;;;;;;;8.30;99.90;;;;;;5034546;28;19932;-76
2021/11/06 05:32:00;;;;;;;;;;;8.30;99.90;;;;;;5033342;28;19917;-75
2021/11/06 05:34:26;;;;;;;;;;;8.30;99.90;;;;;;5049499;28;19960;-78
2021/11/06 05:36:52;;;;;;;;;;;8.30;99.90;;;;;;5029882;28;19937;-76
2021/11/06 05:39:18;;;;;;;;;;;8.30;99.90;;;;;;5062747;28;19920;-76
2021/11/06 05:41:43;;;;;;;;;;;8.30;99.90;;;;;;5033152;28;19917;-79
2021/11/06 05:44:09;;;;;;;;;;;8.30;99.90;;;;;;5029714;28;19913;-75
2021/11/06 05:46:34;;;;;;;;;;;8.30;99.90;;;;;;5033149;28;19927;-77
2021/11/06 05:49:00;;;;;;;;;;;8.30;99.90;;;;;;5048083;28;19925;-77
2021/11/06 05:51:26;;;;;;;;;;;8.30;99.90;;;;;;5033200;28;19917;-77
2021/11/06 05:53:51;;;;;;;;;;;8.30;99.90;;;;;;5059070;28;19959;-78
2021/11/06 05:56:18;;;;;;;;;;;8.40;99.90;;;;;;5048038;28;19971;-77
2021/11/06 05:58:44;;;;;;;;;;;8.40;99.90;;;;;;5031929;28;19959;-77
2021/11/06 06:01:09;;;;;;;;;;;8.30;99.90;;;;;;5059427;28;19913;-77
2021/11/06 06:03:35;;;;;;;;;;;8.40;99.90;;;;;;5031727;28;19928;-78
2021/11/06 06:06:01;;;;;;;;;;;8.40;99.90;;;;;;5033095;28;20312;-77
2021/11/06 06:08:27;;;;;;;;;;;8.40;99.90;;;;;;5033465;28;19928;-77
2021/11/06 06:10:52;;;;;;;;;;;8.40;99.90;;;;;;5027068;28;19920;-77
2021/11/06 06:13:18;;;;;;;;;;;8.40;99.90;;;;;;5031710;28;19914;-77
2021/11/06 06:15:44;;;;;;;;;;;8.40;99.90;;;;;;5033738;28;19913;-76
2021/11/06 06:18:10;;;;;;;;;;;8.40;99.90;;;;;;5032661;28;19913;-78
2021/11/06 06:20:35;;;;;;;;;;;8.40;99.90;;;;;;5029067;28;19917;-77
2021/11/06 06:23:01;;;;;;;;;;;8.40;99.90;;;;;;5032122;28;19921;-76
2021/11/06 06:25:27;;;;;;;;;;;8.40;99.90;;;;;;5029086;28;20014;-75
2021/11/06 06:27:52;;;;;;;;;;;8.40;99.90;;;;;;5030832;28;19952;-76
2021/11/06 06:30:19;;;;;;;;;;;8.40;99.90;;;;;;5031801;28;19914;-77
2021/11/06 06:32:45;;;;;;;;;;;8.40;99.90;;;;;;5032306;28;19917;-77
2021/11/06 06:35:11;;;;;;;;;;;8.50;99.90;;;;;;5029665;28;20335;-78
2021/11/06 06:37:37;;;;;;;;;;;8.40;99.90;;;;;;5031691;28;19918;-77
2021/11/06 06:40:04;;;;;;;;;;;8.50;99.90;;;;;;5032858;28;19948;-77
2021/11/06 06:42:30;;;;;;;;;;;8.50;99.90;;;;;;5031047;28;19929;-78
2021/11/06 06:44:55;;;;;;;;;;;8.50;99.90;;;;;;5029436;28;19975;-77
2021/11/06 06:47:21;;;;;;;;;;;8.50;99.90;;;;;;5045952;28;19917;-78
2021/11/06 06:49:47;;;;;;;;;;;8.50;99.90;;;;;;5038935;28;20327;-77
2021/11/06 06:52:14;;;;;;;;;;;8.50;99.90;;;;;;5030956;28;19917;-77
2021/11/06 06:54:39;;;;;;;;;;;8.50;99.90;;;;;;5039412;28;20271;-78
2021/11/06 06:57:05;;;;;;;;;;;8.50;99.90;;;;;;5028689;28;19960;-77
2021/11/06 06:59:33;;;;;;;;;;;8.50;99.90;;;;;;5038366;28;19924;-78
2021/11/06 07:02:02;;;;;;;;;;;8.50;99.90;;;;;;5038778;28;19917;-77
2021/11/06 07:04:28;;;;;;;;;;;8.50;99.90;;;;;;5034409;28;19971;-77
2021/11/06 07:06:54;;;;;;;;;;;8.50;99.90;;;;;;5044604;28;19913;-77
2021/11/06 07:09:20;;;;;;;;;;;8.50;99.90;;;;;;5034724;28;19967;-79
2021/11/06 07:11:46;;;;;;;;;;;8.50;99.90;;;;;;5033622;28;19917;-83
2021/11/06 07:14:12;;;;;;;;;;;8.50;99.90;;;;;;5035057;28;19921;-78
2021/11/06 07:16:38;;;;;;;;;;;8.50;99.90;;;;;;5033845;28;19971;-79
2021/11/06 07:19:03;;;;;;;;;;;8.50;99.90;;;;;;5065400;28;19948;-77
2021/11/06 07:21:29;;;;;;;;;;;8.50;99.90;;;;;;5034805;28;20209;-78
2021/11/06 07:23:54;;;;;;;;;;;8.60;99.90;;;;;;5034069;28;19924;-78
2021/11/06 07:26:20;;;;;;;;;;;8.50;99.90;;;;;;5035133;28;20320;-78
2021/11/06 07:28:46;;;;;;;;;;;8.60;99.90;;;;;;5030666;28;19917;-77
2021/11/06 07:31:12;;;;;;;;;;;8.60;99.90;;;;;;5035072;28;19913;-76
2021/11/06 07:33:38;;;;;;;;;;;8.60;99.90;;;;;;5032286;28;20223;-77
2021/11/06 07:36:03;;;;;;;;;;;8.60;99.90;;;;;;5065444;28;19928;-76
2021/11/06 07:38:29;;;;;;;;;;;8.60;99.90;;;;;;5063862;28;20321;-75
2021/11/06 07:40:55;;;;;;;;;;;8.60;99.90;;;;;;5035597;28;20214;-77
2021/11/06 07:43:20;;;;;;;;;;;8.70;99.90;;;;;;5033945;28;19928;-77
2021/11/06 07:45:46;;;;;;;;;;;8.70;99.90;;;;;;5049762;28;19970;-76
2021/11/06 07:48:11;;;;;;;;;;;8.70;99.90;;;;;;5059955;28;19978;-78
2021/11/06 07:50:37;;;;;;;;;;;8.70;99.90;;;;;;5035718;28;19921;-78
2021/11/06 07:53:03;;;;;;;;;;;8.80;99.90;;;;;;5035687;28;20366;-78
2021/11/06 07:55:29;;;;;;;;;;;8.70;99.90;;;;;;5034126;28;20374;-75
2021/11/06 07:57:54;;;;;;;;;;;8.80;99.90;;;;;;5035209;28;20003;-76
2021/11/06 08:00:20;;;;;;;;;;;8.80;99.90;;;;;;5034632;28;19913;-75
2021/11/06 08:02:46;;;;;;;;;;;8.80;99.90;;;;;;5035958;28;20001;-78
2021/11/06 08:05:13;;;;;;;;;;;8.80;99.90;;;;;;5034745;28;19996;-77
2021/11/06 08:07:40;;;;;;;;;;;8.80;99.90;;;;;;5033595;28;19914;-76
2021/11/06 08:10:06;;;;;;;;;;;8.80;99.90;;;;;;5029594;28;20384;-78
2021/11/06 08:12:33;;;;;;;;;;;8.80;99.90;;;;;;5033249;28;19913;-78
2021/11/06 08:14:58;;;;;;;;;;;8.80;99.90;;;;;;5043101;28;19960;-78
2021/11/06 08:17:24;;;;;;;;;;;8.90;99.90;;;;;;5034259;28;19922;-78
2021/11/06 08:19:50;;;;;;;;;;;8.90;99.90;;;;;;5036357;28;19963;-78
2021/11/06 08:22:15;;;;;;;;;;;9.00;99.90;;;;;;5057522;28;19920;-78
2021/11/06 08:24:42;;;;;;;;;;;9.00;99.90;;;;;;5034206;28;20324;-78
2021/11/06 08:27:08;;;;;;;;;;;9.00;99.90;;;;;;5030925;28;19920;-78
2021/11/06 08:29:35;;;;;;;;;;;9.10;99.90;;;;;;5034586;28;20212;-78
2021/11/06 08:32:01;;;;;;;;;;;9.00;99.90;;;;;;5034561;28;19964;-78
2021/11/06 08:34:26;;;;;;;;;;;9.10;99.90;;;;;;5033292;28;19963;-78
2021/11/06 08:36:53;;;;;;;;;;;9.10;99.90;;;;;;5031696;28;19917;-78
2021/11/06 08:39:20;;;;;;;;;;;9.20;99.90;;;;;;5032905;28;19913;-78
2021/11/06 08:41:49;;;;;;;;;;;9.10;99.90;;;;;;5033960;28;19925;-78
2021/11/06 08:44:18;;;;;;;;;;;9.10;99.90;;;;;;5033308;28;20584;-77
2021/11/06 08:46:45;;;;;;;;;;;9.10;99.90;;;;;;5033057;28;19913;-79
2021/11/06 08:49:11;;;;;;;;;;;9.10;99.90;;;;;;5028436;28;19971;-80
2021/11/06 08:51:36;;;;;;;;;;;9.10;99.90;;;;;;5033217;28;20047;-79
2021/11/06 08:54:03;;;;;;;;;;;9.20;99.90;;;;;;5035427;28;19951;-79
2021/11/06 08:56:29;;;;;;;;;;;9.20;99.90;;;;;;5041799;28;20292;-78
2021/11/06 08:58:55;;;;;;;;;;;9.30;99.90;;;;;;5030273;28;19913;-78
2021/11/06 09:01:21;;;;;;;;;;;9.30;99.90;;;;;;5030312;28;20210;-77
2021/11/06 09:03:46;;;;;;;;;;;9.30;99.90;;;;;;5028341;28;19920;-79
2021/11/06 09:06:12;;;;;;;;;;;9.30;99.90;;;;;;5032923;28;19921;-78
2021/11/06 09:08:42;;;;;;;;;;;9.30;99.90;;;;;;5034129;28;19909;-79
2021/11/06 09:11:10;;;;;;;;;;;9.20;99.90;;;;;;5066078;28;19913;-77
2021/11/06 09:13:36;;;;;;;;;;;9.20;99.90;;;;;;5026696;28;20364;-78
2021/11/06 09:16:10;;;;;;;;;;;9.20;99.90;;;;;;5033247;28;19913;-78
2021/11/06 09:18:36;;;;;;;;;;;9.20;99.90;;;;;;5032684;28;19955;-77
2021/11/06 09:21:02;;;;;;;;;;;9.20;99.90;;;;;;5033269;28;20203;-77
2021/11/06 09:23:31;;;;;;;;;;;9.20;99.90;;;;;;5064848;28;19920;-76
2021/11/06 09:25:57;;;;;;;;;;;9.20;99.90;;;;;;5029030;28;19917;-77
2021/11/06 09:28:24;;;;;;;;;;;9.20;99.90;;;;;;5031324;28;19916;-76
2021/11/06 09:30:50;;;;;;;;;;;9.30;99.90;;;;;;5030935;28;19936;-78
2021/11/06 09:33:16;;;;;;;;;;;9.30;99.90;;;;;;5031168;28;20308;-77
2021/11/06 09:35:41;;;;;;;;;;;9.40;99.90;;;;;;5031612;28;20019;-75
2021/11/06 09:38:08;;;;;;;;;;;9.40;99.90;;;;;;5030585;28;20007;-77
2021/11/06 09:40:33;;;;;;;;;;;9.50;99.90;;;;;;5030554;28;20214;-76
2021/11/06 09:43:00;;;;;;;;;;;9.50;99.90;;;;;;5030020;28;19971;-79
2021/11/06 09:45:26;;;;;;;;;;;9.60;99.90;;;;;;5032795;28;19923;-78
2021/11/06 09:47:51;;;;;;;;;;;9.60;99.90;;;;;;5032373;28;20015;-78
2021/11/06 09:50:18;;;;;;;;;;;9.70;99.90;;;;;;5031385;28;19917;-77
2021/11/06 09:52:45;;;;;;;;;;;9.80;99.90;;;;;;5032137;28;19921;-77
2021/11/06 09:55:11;;;;;;;;;;;9.80;99.90;;;;;;5036328;28;20208;-77
2021/11/06 09:57:37;;;;;;;;;;;9.80;99.90;;;;;;5030410;28;19917;-77
2021/11/06 10:00:04;;;;;;;;;;;9.90;99.90;;;;;;5046775;28;19917;-78
2021/11/06 10:02:30;;;;;;;;;;;9.80;99.90;;;;;;5055439;28;19925;-78
2021/11/06 10:04:56;;;;;;;;;;;9.90;99.90;;;;;;5027462;28;20564;-79
2021/11/06 10:07:23;;;;;;;;;;;9.90;99.90;;;;;;5027820;28;20482;-79
2021/11/06 10:10:00;;;;;;;;;;;9.90;99.90;;;;;;5031986;28;19917;-78
2021/11/06 10:12:31;;;;;;;;;;;9.90;99.90;;;;;;5056735;28;19925;-78
2021/11/06 10:15:07;;;;;;;;;;;9.90;99.90;;;;;;5031744;28;19996;-77
2021/11/06 10:17:35;;;;;;;;;;;9.90;99.90;;;;;;5029575;28;19995;-81
2021/11/06 10:20:17;;;;;;;;;;;10.00;99.90;;;;;;5032533;28;19920;-75
2021/11/06 10:22:44;;;;;;;;;;;10.00;99.90;;;;;;5032479;28;20224;-77
2021/11/06 10:25:09;;;;;;;;;;;10.10;99.90;;;;;;5025404;28;19913;-76
2021/11/06 10:27:35;;;;;;;;;;;10.10;99.90;;;;;;5060588;28;19923;-78
2021/11/06 10:30:18;;;;;;;;;;;10.20;99.90;;;;;;5032416;28;19924;-79
2021/11/06 10:32:54;;;;;;;;;;;10.20;99.90;;;;;;5029299;28;20236;-79
2021/11/06 10:35:21;;;;;;;;;;;10.20;99.90;;;;;;5030628;28;19913;-78
2021/11/06 10:37:48;;;;;;;;;;;10.30;99.90;;;;;;5028447;28;19921;-78
2021/11/06 10:40:14;;;;;;;;;;;10.30;99.90;;;;;;5029535;28;19925;-78
2021/11/06 10:42:50;;;;;;;;;;;10.30;99.90;;;;;;5063870;28;19963;-78
2021/11/06 10:45:16;;;;;;;;;;;10.30;99.90;;;;;;5031773;28;19921;-77
2021/11/06 10:47:49;;;;;;;;;;;10.30;99.90;;;;;;5032687;28;20236;-84
2021/11/06 10:50:15;;;;;;;;;;;10.30;99.90;;;;;;5032704;28;20226;-78
2021/11/06 10:52:50;;;;;;;;;;;10.30;99.90;;;;;;5040488;28;19921;-78
2021/11/06 10:55:15;;;;;;;;;;;10.30;99.90;;;;;;5062906;28;20215;-78
2021/11/06 10:57:41;;;;;;;;;;;10.30;99.90;;;;;;5031499;28;19924;-77
2021/11/06 11:00:06;;;;;;;;;;;10.30;99.90;;;;;;5042661;28;20239;-76
2021/11/06 11:02:32;;;;;;;;;;;10.30;99.90;;;;;;5036341;28;19924;-78
2021/11/06 11:04:58;;;;;;;;;;;10.30;99.90;;;;;;5031782;28;19921;-77
2021/11/06 11:07:23;;;;;;;;;;;10.30;99.90;;;;;;5033829;28;20004;-79
2021/11/06 11:09:49;;;;;;;;;;;10.30;99.90;;;;;;5041591;28;19925;-77
2021/11/06 11:12:18;;;;;;;;;;;10.30;99.90;;;;;;5042801;28;19933;-78
2021/11/06 11:14:53;;;;;;;;;;;10.30;99.90;;;;;;5044655;28;19936;-79
2021/11/06 11:17:19;;;;;;;;;;;10.40;99.90;;;;;;5062620;28;19935;-78
2021/11/06 11:19:45;;;;;;;;;;;10.50;99.90;;;;;;5033423;28;19924;-79
2021/11/06 11:22:22;;;;;;;;;;;10.50;99.90;;;;;;5034983;28;20324;-79
2021/11/06 11:24:48;;;;;;;;;;;10.60;99.90;;;;;;5030205;28;19999;-79
2021/11/06 11:27:14;;;;;;;;;;;10.60;99.90;;;;;;5068781;28;19939;-78
2021/11/06 11:29:40;;;;;;;;;;;10.70;99.90;;;;;;5036588;28;20304;-80
2021/11/06 11:32:05;;;;;;;;;;;10.80;99.90;;;;;;5034992;28;19923;-80
2021/11/06 11:34:31;;;;;;;;;;;10.80;99.90;;;;;;5035391;28;19917;-79
2021/11/06 11:36:57;;;;;;;;;;;10.90;99.90;;;;;;5029573;28;19924;-78
2021/11/06 11:39:24;;;;;;;;;;;10.80;99.90;;;;;;5034619;28;19928;-77
2021/11/06 11:42:22;;;;;;;;;;;10.80;99.90;;;;;;5033848;28;20235;-77
2021/11/06 11:45:07;;;;;;;;;;;10.70;99.90;;;;;;4989976;28;19921;-78
2021/11/06 11:47:46;;;;;;;;;;;10.70;99.90;;;;;;5033833;28;20367;-87
2021/11/06 11:50:17;;;;;;;;;;;10.60;99.90;;;;;;5027666;28;21237;-80
2021/11/06 11:52:51;;;;;;;;;;;10.60;99.90;;;;;;5035021;28;19920;-78
2021/11/06 11:55:19;;;;;;;;;;;10.60;99.90;;;;;;5031086;28;19909;-79
2021/11/06 11:58:03;;;;;;;;;;;10.60;99.90;;;;;;5032325;28;19952;-78
2021/11/06 12:00:29;;;;;;;;;;;10.60;99.90;;;;;;5032805;28;19924;-79
2021/11/06 12:02:58;;;;;;;;;;;10.60;99.90;;;;;;5050565;28;19929;-78
2021/11/06 12:05:24;;;;;;;;;;;10.60;99.90;;;;;;5034104;28;19917;-78
2021/11/06 12:08:10;;;;;;;;;;;10.60;99.90;;;;;;5034358;28;19917;-75
2021/11/06 12:10:42;;;;;;;;;;;10.60;99.90;;;;;;5022669;28;19924;-79
2021/11/06 12:13:29;;;;;;;;;;;10.70;99.90;;;;;;5033860;28;19917;-77
2021/11/06 12:15:54;;;;;;;;;;;10.70;99.90;;;;;;5024463;28;20316;-76
2021/11/06 12:18:35;;;;;;;;;;;10.80;99.90;;;;;;5034910;28;20007;-78
2021/11/06 12:21:17;;;;;;;;;;;10.80;99.90;;;;;;5028480;28;19917;-80
2021/11/06 12:23:53;;;;;;;;;;;10.80;99.90;;;;;;5047962;28;20338;-78
2021/11/06 12:26:18;;;;;;;;;;;10.80;99.90;;;;;;5049285;28;19960;-79
2021/11/06 12:28:45;;;;;;;;;;;10.70;99.90;;;;;;5033753;28;20311;-80
2021/11/06 12:31:27;;;;;;;;;;;10.70;99.90;;;;;;5035349;28;20268;-79
2021/11/06 12:33:53;;;;;;;;;;;10.80;99.90;;;;;;5048811;28;19917;-79
2021/11/06 12:36:21;;;;;;;;;;;10.80;99.90;;;;;;5059132;28;19913;-80
2021/11/06 12:38:47;;;;;;;;;;;10.80;99.90;;;;;;5033504;28;19916;-81
2021/11/06 12:41:13;;;;;;;;;;;10.80;99.90;;;;;;5032414;28;20201;-78
2021/11/06 12:43:49;;;;;;;;;;;10.80;99.90;;;;;;5027959;28;19960;-80
2021/11/06 12:46:26;;;;;;;;;;;10.80;99.90;;;;;;5059096;28;19967;-79
2021/11/06 12:48:53;;;;;;;;;;;10.70;99.90;;;;;;5033340;28;19917;-79
2021/11/06 12:51:20;;;;;;;;;;;10.80;99.90;;;;;;5033450;28;20189;-78
2021/11/06 12:53:46;;;;;;;;;;;10.70;99.90;;;;;;5033513;28;19923;-79
2021/11/06 12:56:16;;;;;;;;;;;10.70;99.90;;;;;;5025851;28;19917;-79
2021/11/06 12:58:44;;;;;;;;;;;10.70;99.90;;;;;;5031730;28;19918;-79
2021/11/06 13:01:13;;;;;;;;;;;10.70;99.90;;;;;;5057327;28;19992;-78
2021/11/06 13:03:39;;;;;;;;;;;10.70;99.90;;;;;;5033442;28;19917;-80
2021/11/06 13:06:17;;;;;;;;;;;10.70;99.90;;;;;;5049505;28;19921;-78
2021/11/06 13:08:58;;;;;;;;;;;10.70;99.90;;;;;;5031865;28;19917;-80
2021/11/06 13:11:24;;;;;;;;;;;10.60;99.90;;;;;;5053770;28;19914;-80
2021/11/06 13:13:52;;;;;;;;;;;10.70;99.90;;;;;;5041235;28;19950;-79
2021/11/06 13:16:18;;;;;;;;;;;10.70;99.90;;;;;;5057721;28;19939;-78
2021/11/06 13:18:44;;;;;;;;;;;10.70;99.90;;;;;;5040863;28;19913;-79
2021/11/06 13:21:10;;;;;;;;;;;10.80;99.90;;;;;;5031983;28;19913;-76
2021/11/06 13:23:35;;;;;;;;;;;10.80;99.90;;;;;;5029103;28;20327;-78
2021/11/06 13:26:05;;;;;;;;;;;10.90;99.90;;;;;;5032822;28;19963;-86
2021/11/06 13:28:30;;;;;;;;;;;10.80;99.90;;;;;;5029777;28;19913;-76
2021/11/06 13:30:59;;;;;;;;;;;10.80;99.90;;;;;;5034832;28;19913;-87
2021/11/06 13:33:29;;;;;;;;;;;10.80;99.90;;;;;;5060289;28;20077;-84
2021/11/06 13:35:55;;;;;;;;;;;10.80;99.90;;;;;;5033835;28;19924;-89
2021/11/06 13:38:36;;;;;;;;;;;10.90;99.90;;;;;;5032812;28;19917;-79
2021/11/06 13:41:04;;;;;;;;;;;10.90;99.90;;;;;;5034291;28;20282;-81
2021/11/06 13:43:39;;;;;;;;;;;10.90;99.90;;;;;;5033892;28;20007;-88
2021/11/06 13:46:14;;;;;;;;;;;10.90;99.90;;;;;;5030557;28;19920;-87
2021/11/06 13:48:47;;;;;;;;;;;11.00;99.90;;;;;;5033173;28;19952;-93
2021/11/06 13:51:18;;;;;;;;;;;11.00;99.90;;;;;;5032231;28;20225;-77
2021/11/06 13:53:53;;;;;;;;;;;11.00;99.90;;;;;;5060338;28;19914;-76
2021/11/06 13:56:19;;;;;;;;;;;11.00;99.90;;;;;;5034247;28;19921;-91
2021/11/06 13:58:44;;;;;;;;;;;11.00;99.90;;;;;;5026648;28;19920;-79
2021/11/06 14:01:10;;;;;;;;;;;11.00;99.90;;;;;;5033564;28;19913;-76
2021/11/06 14:03:36;;;;;;;;;;;11.00;99.90;;;;;;5031636;28;19921;-78
2021/11/06 14:06:01;;;;;;;;;;;11.00;99.90;;;;;;5031969;28;19913;-92
2021/11/06 14:08:27;;;;;;;;;;;11.00;99.90;;;;;;5032262;28;19913;-83
2021/11/06 14:11:04;;;;;;;;;;;11.00;99.90;;;;;;5033768;28;20004;-77
2021/11/06 14:13:29;;;;;;;;;;;10.90;99.90;;;;;;5033002;28;19943;-86
2021/11/06 14:15:55;;;;;;;;;;;10.90;99.90;;;;;;5032007;28;20312;-88
2021/11/06 14:18:28;;;;;;;;;;;10.90;99.90;;;;;;5048261;28;19918;-92
2021/11/06 14:20:59;;;;;;;;;;;10.90;99.90;;;;;;5034779;28;20291;-93
2021/11/06 14:23:29;;;;;;;;;;;10.90;99.90;;;;;;5026844;28;20351;-92
2021/11/06 14:25:54;;;;;;;;;;;10.90;99.90;;;;;;5033148;28;20016;-84